DLH100 EDDF-CYYT
Flight info
| Callsign | DLH100 |
|---|---|
| Flight time | N/A |
| Altitude | 40000 |
| Route | OBOKA3D/07C OBOKA Z29 TORNU DCT GALSO Q63 ERING L179 UGBET Q60 OKSAW DCT FELCA DCT FADZU DCT NICXI DCT OFSOX DCT SLANY DCT KER DCT TOBOR/M085F390 NATJ ALLRY/N0481F400 DCT MIVAD AVALN5 |
| Aircraft | A359/H-SDE2E3GHIJ3J4J5LM1ORWXY/LB1D1 |
Departure
| Time | 2026-04-13 14:36 |
|---|---|
| Airport | Frankfurt Main Airport (EDDF) |
Arrival
| Time | N/A |
|---|---|
| Airport | St. John's International Airport (CYYT) |
| Time | Latitude | Longitude | Altitude | Speed | Heading |
|---|---|---|---|---|---|
| 2026-04-13 14:12 | 50.04702 | 8.56159 | 362 ft | 0 kts | 339° |
| 2026-04-13 14:24 | 50.04703 | 8.56158 | 362 ft | 0 kts | 339° |
| 2026-04-13 14:25 | 50.04689 | 8.56166 | 367 ft | 3 kts | 339° |
| 2026-04-13 14:25 | 50.04672 | 8.56176 | 365 ft | 3 kts | 339° |
| 2026-04-13 14:26 | 50.04655 | 8.56186 | 369 ft | 3 kts | 335° |
| 2026-04-13 14:26 | 50.04639 | 8.56202 | 368 ft | 3 kts | 315° |
| 2026-04-13 14:26 | 50.04626 | 8.56225 | 365 ft | 3 kts | 295° |
| 2026-04-13 14:26 | 50.04620 | 8.56254 | 362 ft | 3 kts | 274° |
| 2026-04-13 14:27 | 50.04621 | 8.56281 | 362 ft | 0 kts | 255° |
| 2026-04-13 14:28 | 50.04621 | 8.56280 | 362 ft | 1 kts | 255° |
| 2026-04-13 14:28 | 50.04613 | 8.56234 | 368 ft | 10 kts | 255° |
| 2026-04-13 14:29 | 50.04582 | 8.56066 | 367 ft | 21 kts | 248° |
| 2026-04-13 14:29 | 50.04512 | 8.55961 | 369 ft | 24 kts | 212° |
| 2026-04-13 14:29 | 50.04327 | 8.55932 | 362 ft | 17 kts | 173° |
| 2026-04-13 14:29 | 50.04258 | 8.55942 | 364 ft | 13 kts | 175° |
| 2026-04-13 14:30 | 50.04141 | 8.55952 | 364 ft | 14 kts | 185° |
| 2026-04-13 14:30 | 50.04096 | 8.55952 | 364 ft | 3 kts | 159° |
| 2026-04-13 14:30 | 50.04064 | 8.55986 | 364 ft | 11 kts | 132° |
| 2026-04-13 14:30 | 50.04001 | 8.56020 | 359 ft | 0 kts | 199° |
| 2026-04-13 14:32 | 50.03988 | 8.56013 | 358 ft | 8 kts | 201° |
| 2026-04-13 14:32 | 50.03915 | 8.55930 | 365 ft | 17 kts | 230° |
| 2026-04-13 14:32 | 50.03896 | 8.55725 | 363 ft | 24 kts | 277° |
| 2026-04-13 14:33 | 50.03914 | 8.55534 | 357 ft | 29 kts | 276° |
| 2026-04-13 14:33 | 50.03869 | 8.55199 | 363 ft | 36 kts | 250° |
| 2026-04-13 14:33 | 50.03797 | 8.54870 | 362 ft | 3 kts | 251° |
| 2026-04-13 14:33 | 50.03771 | 8.54758 | 358 ft | 17 kts | 250° |
| 2026-04-13 14:34 | 50.03738 | 8.54616 | 356 ft | 24 kts | 251° |
| 2026-04-13 14:34 | 50.03646 | 8.54339 | 357 ft | 31 kts | 214° |
| 2026-04-13 14:34 | 50.03510 | 8.54446 | 357 ft | 21 kts | 96° |
| 2026-04-13 14:34 | 50.03519 | 8.54521 | 355 ft | 0 kts | 69° |
| 2026-04-13 14:35 | 50.03570 | 8.54735 | 358 ft | 55 kts | 69° |
| 2026-04-13 14:35 | 50.03784 | 8.55611 | 362 ft | 117 kts | 69° |
| 2026-04-13 14:35 | 50.04131 | 8.57059 | 372 ft | 168 kts | 68° |
| 2026-04-13 14:36 | 50.04579 | 8.58771 | 999 ft | 166 kts | 66° |
| 2026-04-13 14:36 | 50.04989 | 8.60502 | 1643 ft | 173 kts | 70° |
| 2026-04-13 14:36 | 50.05354 | 8.62243 | 2343 ft | 170 kts | 70° |
| 2026-04-13 14:36 | 50.05745 | 8.64079 | 2578 ft | 188 kts | 70° |
| 2026-04-13 14:37 | 50.06186 | 8.66096 | 2771 ft | 206 kts | 69° |
| 2026-04-13 14:37 | 50.06666 | 8.68263 | 3045 ft | 216 kts | 70° |
| 2026-04-13 14:37 | 50.07338 | 8.70465 | 3215 ft | 238 kts | 53° |
| 2026-04-13 14:37 | 50.08669 | 8.72104 | 3613 ft | 253 kts | 25° |
| 2026-04-13 14:38 | 50.10284 | 8.73214 | 4271 ft | 260 kts | 22° |
| 2026-04-13 14:38 | 50.11982 | 8.74314 | 4780 ft | 268 kts | 22° |
| 2026-04-13 14:38 | 50.13707 | 8.75446 | 4984 ft | 270 kts | 22° |
| 2026-04-13 14:38 | 50.15441 | 8.76602 | 4999 ft | 272 kts | 23° |
| 2026-04-13 14:39 | 50.17185 | 8.77774 | 5022 ft | 273 kts | 23° |
| 2026-04-13 14:39 | 50.18935 | 8.78956 | 5382 ft | 275 kts | 23° |
| 2026-04-13 14:39 | 50.20702 | 8.80152 | 6156 ft | 278 kts | 23° |
| 2026-04-13 14:39 | 50.22481 | 8.81358 | 7012 ft | 280 kts | 24° |
| 2026-04-13 14:40 | 50.24288 | 8.82568 | 7814 ft | 287 kts | 22° |
| 2026-04-13 14:40 | 50.26264 | 8.83118 | 8597 ft | 294 kts | 354° |
| 2026-04-13 14:40 | 50.28167 | 8.82102 | 9354 ft | 298 kts | 323° |
| 2026-04-13 14:40 | 50.29523 | 8.79706 | 10097 ft | 296 kts | 292° |
| 2026-04-13 14:41 | 50.30131 | 8.76567 | 10573 ft | 311 kts | 277° |
| 2026-04-13 14:41 | 50.30592 | 8.73151 | 10924 ft | 332 kts | 280° |
| 2026-04-13 14:41 | 50.31193 | 8.69551 | 11292 ft | 352 kts | 283° |
| 2026-04-13 14:41 | 50.31917 | 8.65789 | 11771 ft | 366 kts | 285° |
| 2026-04-13 14:42 | 50.32707 | 8.61958 | 12500 ft | 373 kts | 286° |
| 2026-04-13 14:42 | 50.33528 | 8.58090 | 13256 ft | 377 kts | 286° |
| 2026-04-13 14:42 | 50.34366 | 8.54179 | 13993 ft | 381 kts | 287° |
| 2026-04-13 14:42 | 50.35208 | 8.50272 | 14643 ft | 386 kts | 287° |
| 2026-04-13 14:43 | 50.36074 | 8.46265 | 15279 ft | 391 kts | 286° |
| 2026-04-13 14:43 | 50.36941 | 8.42217 | 15948 ft | 394 kts | 285° |
| 2026-04-13 14:43 | 50.37545 | 8.38028 | 16576 ft | 395 kts | 273° |
| 2026-04-13 14:43 | 50.37500 | 8.33907 | 17268 ft | 393 kts | 258° |
| 2026-04-13 14:44 | 50.36858 | 8.29742 | 18009 ft | 395 kts | 250° |
| 2026-04-13 14:44 | 50.36027 | 8.25620 | 18632 ft | 399 kts | 249° |
| 2026-04-13 14:44 | 50.35178 | 8.21484 | 19294 ft | 400 kts | 249° |
| 2026-04-13 14:44 | 50.34331 | 8.17322 | 19968 ft | 402 kts | 249° |
| 2026-04-13 14:45 | 50.33493 | 8.13191 | 20630 ft | 405 kts | 249° |
| 2026-04-13 14:45 | 50.32642 | 8.08980 | 21280 ft | 407 kts | 249° |
| 2026-04-13 14:45 | 50.31785 | 8.04741 | 21924 ft | 410 kts | 249° |
| 2026-04-13 14:45 | 50.30923 | 8.00473 | 22577 ft | 412 kts | 249° |
| 2026-04-13 14:46 | 50.30225 | 7.96096 | 23201 ft | 419 kts | 256° |
| 2026-04-13 14:46 | 50.30035 | 7.91502 | 23794 ft | 429 kts | 268° |
| 2026-04-13 14:46 | 50.30473 | 7.86839 | 24288 ft | 440 kts | 280° |
| 2026-04-13 14:46 | 50.31526 | 7.82293 | 24774 ft | 449 kts | 289° |
| 2026-04-13 14:47 | 50.32829 | 7.77821 | 25272 ft | 454 kts | 290° |
| 2026-04-13 14:47 | 50.34298 | 7.73413 | 25742 ft | 461 kts | 297° |
| 2026-04-13 14:47 | 50.36178 | 7.69377 | 26240 ft | 470 kts | 308° |
| 2026-04-13 14:47 | 50.38562 | 7.65820 | 26711 ft | 478 kts | 319° |
| 2026-04-13 14:48 | 50.41383 | 7.62958 | 27205 ft | 486 kts | 330° |
| 2026-04-13 14:48 | 50.44461 | 7.60705 | 27702 ft | 491 kts | 334° |
| 2026-04-13 14:48 | 50.47610 | 7.58562 | 28185 ft | 495 kts | 334° |
| 2026-04-13 14:48 | 50.50774 | 7.56409 | 28645 ft | 498 kts | 334° |
| 2026-04-13 14:49 | 50.53962 | 7.54215 | 29079 ft | 501 kts | 334° |
| 2026-04-13 14:49 | 50.57045 | 7.51658 | 29543 ft | 501 kts | 326° |
| 2026-04-13 14:49 | 50.59954 | 7.48761 | 29961 ft | 504 kts | 324° |
| 2026-04-13 14:49 | 50.62897 | 7.45746 | 30314 ft | 507 kts | 324° |
| 2026-04-13 14:50 | 50.65859 | 7.42701 | 30630 ft | 510 kts | 324° |
| 2026-04-13 14:50 | 50.68837 | 7.39638 | 30942 ft | 514 kts | 324° |
| 2026-04-13 14:50 | 50.71743 | 7.36330 | 31247 ft | 514 kts | 317° |
| 2026-04-13 14:50 | 50.74293 | 7.32395 | 31536 ft | 511 kts | 307° |
| 2026-04-13 14:51 | 50.76370 | 7.27875 | 31846 ft | 507 kts | 296° |
| 2026-04-13 14:51 | 50.78092 | 7.23045 | 32272 ft | 504 kts | 293° |